createdAt,value
2019-04-11T00:00:07.559Z,64.94
2019-04-11T00:01:08.044Z,64.73
2019-04-11T00:02:08.606Z,64.52
2019-04-11T00:03:07.525Z,64.42
2019-04-11T00:04:08.207Z,64.42
2019-04-11T00:05:07.508Z,64.45
2019-04-11T00:06:07.570Z,64.42
2019-04-11T00:07:07.840Z,64.34
2019-04-11T00:08:08.033Z,64.76
2019-04-11T00:09:08.172Z,65.90
2019-04-11T00:10:08.277Z,65.90
2019-04-11T00:11:07.432Z,65.90
2019-04-11T00:12:08.378Z,65.80
2019-04-11T00:13:18.240Z,65.80
2019-04-11T00:14:08.533Z,66.11
2019-04-11T00:15:08.525Z,66.31
2019-04-11T00:16:07.378Z,66.28
2019-04-11T00:17:07.846Z,65.83
2019-04-11T00:18:08.265Z,66.11
2019-04-11T00:19:07.398Z,66.00
2019-04-11T00:20:07.678Z,65.48
2019-04-11T00:21:07.317Z,65.93
2019-04-11T00:22:07.308Z,65.83
2019-04-11T00:23:08.133Z,66.24
2019-04-11T00:24:07.312Z,66.38
2019-04-11T00:25:07.395Z,66.56
2019-04-11T00:26:08.322Z,66.06
2019-04-11T00:27:07.251Z,66.59
2019-04-11T00:28:07.768Z,66.38
2019-04-11T00:29:07.230Z,66.38
2019-04-11T00:30:08.081Z,66.27
2019-04-11T00:31:08.363Z,67.73
2019-04-11T00:32:09.170Z,67.73
2019-04-11T00:33:07.874Z,67.73
2019-04-11T00:34:07.174Z,67.63
2019-04-11T00:35:07.278Z,67.94
2019-04-11T00:36:08.235Z,67.63
2019-04-11T00:37:07.137Z,67.63
2019-04-11T00:38:07.752Z,67.21
2019-04-11T00:39:07.677Z,68.46
2019-04-11T00:40:07.125Z,68.60
2019-04-11T00:41:07.983Z,68.15
2019-04-11T00:42:07.236Z,68.07
2019-04-11T00:43:07.347Z,68.60
2019-04-11T00:44:07.057Z,69.12
2019-04-11T00:45:07.564Z,69.12
2019-04-11T00:46:07.873Z,69.29
2019-04-11T00:47:07.024Z,69.01
2019-04-11T00:48:07.010Z,68.60
2019-04-11T00:49:08.042Z,68.80
2019-04-11T00:50:07.382Z,68.80
2019-04-11T00:51:07.739Z,68.70
2019-04-11T00:52:06.964Z,69.22
2019-04-11T00:53:06.958Z,69.22
2019-04-11T00:54:06.946Z,69.64
2019-04-11T00:55:07.210Z,69.43
2019-04-11T00:56:08.170Z,69.32
2019-04-11T00:57:06.909Z,70.36
2019-04-11T00:58:07.507Z,70.57
2019-04-11T00:59:07.947Z,70.15
2019-04-11T01:00:07.006Z,69.84
2019-04-11T01:01:07.184Z,69.43
2019-04-11T01:02:13.889Z,70.26
2019-04-11T01:03:06.842Z,69.95
2019-04-11T01:04:07.603Z,70.26
2019-04-11T01:05:07.572Z,69.74
2019-04-11T01:06:06.825Z,69.84
2019-04-11T01:07:06.913Z,69.77
2019-04-11T01:08:07.270Z,69.35
2019-04-11T01:09:06.774Z,69.35
2019-04-11T01:10:06.764Z,70.50
2019-04-11T01:11:07.763Z,70.40
2019-04-11T01:12:06.737Z,70.92
2019-04-11T01:13:07.154Z,71.44
2019-04-11T01:14:07.749Z,70.50
2019-04-11T01:15:07.052Z,71.12
2019-04-11T01:16:07.079Z,71.68
2019-04-11T01:17:07.811Z,71.44
2019-04-11T01:18:06.708Z,70.71
2019-04-11T01:19:06.709Z,71.05
2019-04-11T01:20:06.993Z,70.64
2019-04-11T01:21:06.653Z,71.16
2019-04-11T01:22:07.654Z,70.64
2019-04-11T01:23:06.865Z,71.99
2019-04-11T01:24:07.217Z,71.61
2019-04-11T01:25:06.600Z,71.92
2019-04-11T01:26:06.601Z,71.09
2019-04-11T01:27:07.700Z,71.81
2019-04-11T01:28:06.834Z,71.50
2019-04-11T01:29:07.143Z,72.13
2019-04-11T01:30:06.534Z,72.16
2019-04-11T01:31:06.540Z,72.34
2019-04-11T01:32:06.607Z,72.37
2019-04-11T01:33:06.704Z,72.24
2019-04-11T01:34:06.593Z,73.41
2019-04-11T01:35:06.902Z,72.65
2019-04-11T01:36:07.024Z,72.37
2019-04-11T01:37:07.255Z,72.78
2019-04-11T01:38:06.447Z,72.37
2019-04-11T01:39:06.434Z,72.78
2019-04-11T01:40:07.678Z,72.78
2019-04-11T01:41:06.638Z,73.21
2019-04-11T01:42:07.000Z,73.62
2019-04-11T01:43:06.391Z,73.66
2019-04-11T01:44:07.549Z,73.66
2019-04-11T01:45:07.344Z,73.86
2019-04-11T01:46:07.483Z,73.97
2019-04-11T01:47:06.699Z,74.07
2019-04-11T01:48:07.062Z,74.38
2019-04-11T01:49:06.326Z,74.28
2019-04-11T01:50:06.315Z,75.29
2019-04-11T01:51:07.451Z,75.53
2019-04-11T01:52:06.574Z,75.40
2019-04-11T01:53:06.813Z,74.60
2019-04-11T01:54:06.270Z,75.53
2019-04-11T01:55:06.273Z,75.12
2019-04-11T01:56:07.196Z,74.49
2019-04-11T01:57:06.230Z,74.18
2019-04-11T01:58:06.639Z,74.01
2019-04-11T01:59:07.019Z,74.70
2019-04-11T02:00:06.216Z,75.26
2019-04-11T02:01:06.410Z,75.32
2019-04-11T02:02:07.414Z,75.71
2019-04-11T02:03:06.757Z,75.71
2019-04-11T02:04:06.155Z,74.77
2019-04-11T02:05:06.163Z,75.29
2019-04-11T02:06:06.133Z,74.87
2019-04-11T02:07:06.650Z,74.25
2019-04-11T02:08:07.104Z,73.72
2019-04-11T02:09:06.136Z,73.93
2019-04-11T02:10:06.083Z,74.35
2019-04-11T02:11:07.181Z,74.07
2019-04-11T02:12:06.064Z,74.28
2019-04-11T02:13:06.048Z,73.97
2019-04-11T02:14:13.616Z,74.07
2019-04-11T02:15:08.144Z,74.49
2019-04-11T02:16:06.039Z,74.49
2019-04-11T02:17:06.436Z,75.32
2019-04-11T02:18:05.994Z,75.01
2019-04-11T02:19:05.982Z,75.26
2019-04-11T02:20:06.994Z,75.22
2019-04-11T02:21:05.979Z,75.15
2019-04-11T02:22:06.305Z,74.94
2019-04-11T02:23:06.760Z,75.26
2019-04-11T02:24:05.927Z,75.15
2019-04-11T02:25:06.055Z,75.46
2019-04-11T02:26:07.060Z,75.26
2019-04-11T02:27:06.503Z,75.78
2019-04-11T02:28:06.556Z,75.57
2019-04-11T02:29:05.866Z,75.57
2019-04-11T02:30:05.880Z,75.46
2019-04-11T02:31:09.078Z,75.98
2019-04-11T02:32:07.452Z,76.30
2019-04-11T02:33:07.226Z,76.09
2019-04-11T02:34:06.550Z,75.81
2019-04-11T02:35:07.828Z,75.98
2019-04-11T02:36:07.952Z,76.12
2019-04-11T02:37:07.075Z,76.23
2019-04-11T02:38:07.638Z,76.33
2019-04-11T02:39:11.745Z,76.65
2019-04-11T02:40:07.596Z,77.06
2019-04-11T02:41:07.961Z,77.38
2019-04-11T02:42:06.545Z,76.75
2019-04-11T02:43:07.645Z,77.17
2019-04-11T02:44:11.629Z,77.27
2019-04-11T02:45:22.432Z,77.48
2019-04-11T02:46:17.274Z,77.31
2019-04-11T02:47:11.944Z,77.10
2019-04-11T02:48:09.327Z,77.51
2019-04-11T02:49:06.091Z,77.80
2019-04-11T02:50:05.915Z,78.46
2019-04-11T02:51:07.490Z,78.35
2019-04-11T02:52:07.150Z,78.35
2019-04-11T02:53:07.171Z,78.46
2019-04-11T02:54:06.905Z,77.94
2019-04-11T02:55:06.208Z,78.14
2019-04-11T02:56:06.252Z,77.94
2019-04-11T02:57:05.765Z,78.46
2019-04-11T02:58:06.283Z,78.35
2019-04-11T02:59:05.618Z,78.04
2019-04-11T03:00:06.479Z,78.46
2019-04-11T03:01:07.426Z,78.46
2019-04-11T03:02:07.098Z,78.46
2019-04-11T03:03:06.195Z,78.60
2019-04-11T03:04:07.306Z,78.56
2019-04-11T03:05:06.988Z,78.98
2019-04-11T03:06:07.095Z,78.77
2019-04-11T03:07:06.036Z,79.02
2019-04-11T03:08:10.592Z,79.02
2019-04-11T03:09:07.030Z,78.60
2019-04-11T03:10:07.102Z,79.02
2019-04-11T03:11:07.517Z,79.12
2019-04-11T03:12:07.211Z,79.26
2019-04-11T03:13:05.388Z,79.26
2019-04-11T03:14:05.390Z,79.47
2019-04-11T03:15:25.751Z,80.52
2019-04-11T03:16:23.729Z,80.16
2019-04-11T03:17:16.377Z,80.27
2019-04-11T03:18:09.407Z,80.69
2019-04-11T03:19:21.144Z,80.20
2019-04-11T03:20:18.643Z,80.20
2019-04-11T03:21:13.059Z,80.41
2019-04-11T03:22:07.853Z,80.31
2019-04-11T03:23:07.963Z,79.99
2019-04-11T03:24:08.234Z,81.04
2019-04-11T03:25:08.412Z,80.93
2019-04-11T03:26:06.926Z,80.38
2019-04-11T03:27:07.137Z,80.93
2019-04-11T03:28:09.595Z,80.41
2019-04-11T03:29:06.895Z,80.20
2019-04-11T03:30:09.909Z,80.20
2019-04-11T03:31:41.653Z,81.07
2019-04-11T03:34:58.803Z,80.52
2019-04-11T03:36:00.022Z,80.10
2019-04-11T03:37:00.754Z,80.20
2019-04-11T03:37:27.278Z,80.35
2019-04-11T03:38:34.804Z,80.10
2019-04-11T03:39:27.817Z,79.82
2019-04-11T03:40:29.100Z,80.55
2019-04-11T03:41:23.634Z,81.18
2019-04-11T03:42:21.909Z,81.49
2019-04-11T03:43:20.852Z,81.60
2019-04-11T03:44:15.852Z,81.60
2019-04-11T03:45:28.963Z,81.49
2019-04-11T03:46:24.972Z,81.25
2019-04-11T03:47:20.654Z,80.93
2019-04-11T03:48:23.597Z,80.55
2019-04-11T03:49:19.616Z,80.45
2019-04-11T03:50:09.323Z,80.35
2019-04-11T03:51:05.995Z,81.07
2019-04-11T03:52:05.801Z,81.70
2019-04-11T03:53:06.569Z,81.29
2019-04-11T03:54:05.189Z,81.85
2019-04-11T03:55:07.978Z,81.70
2019-04-11T03:56:05.196Z,82.06
2019-04-11T03:57:05.500Z,82.02
2019-04-11T03:58:06.273Z,81.95
2019-04-11T03:59:06.160Z,82.06
2019-04-11T04:00:06.319Z,82.37
2019-04-11T04:01:08.377Z,82.58
2019-04-11T04:02:07.698Z,82.65
2019-04-11T04:03:06.175Z,82.33
2019-04-11T04:04:04.791Z,82.33
2019-04-11T04:05:06.714Z,82.37
2019-04-11T04:06:06.675Z,82.26
2019-04-11T04:07:05.362Z,82.16
2019-04-11T04:08:06.121Z,82.37
2019-04-11T04:09:04.733Z,82.47
2019-04-11T04:10:05.184Z,82.37
2019-04-11T04:11:06.086Z,82.58
2019-04-11T04:12:05.057Z,82.20
2019-04-11T04:13:05.507Z,82.62
2019-04-11T04:14:05.851Z,82.40
2019-04-11T04:15:08.274Z,82.82
2019-04-11T04:16:17.083Z,83.56
2019-04-11T04:17:06.898Z,83.14
2019-04-11T04:18:05.840Z,84.08
2019-04-11T04:19:05.293Z,83.83
2019-04-11T04:20:05.173Z,84.67
2019-04-11T04:21:06.406Z,85.89
2019-04-11T04:22:05.083Z,85.78
2019-04-11T04:23:05.322Z,85.78
2019-04-11T04:24:06.138Z,85.47
2019-04-11T04:25:04.603Z,85.30
2019-04-11T04:26:06.211Z,84.84
2019-04-11T04:27:06.721Z,84.84
2019-04-11T04:28:05.485Z,84.46
2019-04-11T04:29:04.624Z,83.90
2019-04-11T04:30:05.829Z,84.15
2019-04-11T04:31:04.753Z,83.83
2019-04-11T04:32:05.470Z,83.62
2019-04-11T04:33:05.027Z,83.38
2019-04-11T04:34:04.464Z,83.42
2019-04-11T04:35:07.226Z,83.52
2019-04-11T04:36:08.858Z,83.31
2019-04-11T04:37:06.341Z,83.42
2019-04-11T04:38:05.159Z,83.77
2019-04-11T04:39:05.749Z,84.25
2019-04-11T04:40:23.321Z,84.46
2019-04-11T04:41:16.275Z,84.88
2019-04-11T04:42:11.374Z,85.51
2019-04-11T04:43:07.628Z,85.30
2019-04-11T04:44:05.055Z,85.09
2019-04-11T04:45:05.160Z,85.19
2019-04-11T04:46:25.037Z,85.89
2019-04-11T04:47:13.944Z,85.47
2019-04-11T04:48:10.921Z,85.78
2019-04-11T04:49:06.760Z,85.47
2019-04-11T04:50:06.197Z,85.43
2019-04-11T04:51:09.001Z,85.43
2019-04-11T04:52:06.115Z,84.84
2019-04-11T04:53:05.169Z,84.22
2019-04-11T04:54:05.778Z,83.69
2019-04-11T04:55:06.064Z,83.44
2019-04-11T04:56:04.208Z,83.69
2019-04-11T04:57:05.069Z,83.48
2019-04-11T04:58:04.940Z,83.27
2019-04-11T04:59:04.991Z,83.27
2019-04-11T05:00:06.594Z,83.59
2019-04-11T05:01:06.187Z,83.38
2019-04-11T05:02:06.162Z,83.38
2019-04-11T05:03:05.539Z,83.06
2019-04-11T05:04:04.818Z,83.17
2019-04-11T05:05:05.916Z,83.59
2019-04-11T05:06:04.331Z,84.22
2019-04-11T05:07:05.262Z,84.84
2019-04-11T05:08:04.065Z,85.68
2019-04-11T05:09:04.400Z,86.16
2019-04-11T05:10:06.176Z,85.85
2019-04-11T05:11:04.553Z,85.22
2019-04-11T05:12:05.418Z,85.50
2019-04-11T05:13:05.545Z,84.56
2019-04-11T05:14:05.063Z,84.14
2019-04-11T05:15:03.998Z,83.51
2019-04-11T05:16:14.514Z,83.78
2019-04-11T05:17:04.963Z,82.95
2019-04-11T05:18:04.217Z,83.51
2019-04-11T05:19:04.517Z,82.05
2019-04-11T05:20:05.068Z,81.95
2019-04-11T05:21:05.208Z,81.42
2019-04-11T05:22:03.909Z,81.95
2019-04-11T05:23:04.312Z,82.26
2019-04-11T05:24:04.078Z,81.95
2019-04-11T05:25:05.075Z,81.52
2019-04-11T05:26:03.864Z,81.73
2019-04-11T05:27:04.135Z,82.09
2019-04-11T05:28:04.377Z,81.84
2019-04-11T05:29:04.920Z,82.05
2019-04-11T05:30:04.910Z,82.78
2019-04-11T05:31:03.816Z,83.62
2019-04-11T05:32:03.796Z,83.37
2019-04-11T05:33:04.029Z,84.00
2019-04-11T05:34:03.792Z,83.64
2019-04-11T05:35:04.822Z,83.12
2019-04-11T05:36:03.974Z,81.73
2019-04-11T05:37:04.005Z,81.93
2019-04-11T05:38:04.820Z,80.79
2019-04-11T05:39:03.713Z,80.05
2019-04-11T05:40:05.106Z,80.33
2019-04-11T05:41:04.271Z,80.33
2019-04-11T05:42:03.684Z,79.50
2019-04-11T05:43:03.908Z,79.29
2019-04-11T05:44:09.800Z,79.39
2019-04-11T05:45:05.393Z,79.46
2019-04-11T05:46:22.909Z,79.50
2019-04-11T05:47:06.518Z,79.67
2019-04-11T05:48:03.617Z,79.29
2019-04-11T05:49:03.875Z,78.87
2019-04-11T05:50:07.545Z,79.05
2019-04-11T05:51:04.656Z,79.15
2019-04-11T05:52:03.982Z,79.36
2019-04-11T05:53:03.973Z,78.73
2019-04-11T05:54:07.500Z,78.73
2019-04-11T05:55:04.789Z,78.52
2019-04-11T05:56:03.747Z,78.63
2019-04-11T05:57:03.512Z,78.63
2019-04-11T05:58:08.572Z,78.38
2019-04-11T05:59:05.352Z,78.28
2019-04-11T06:00:03.586Z,77.45
2019-04-11T06:01:03.548Z,77.97
2019-04-11T06:02:07.250Z,77.76
2019-04-11T06:03:03.837Z,77.51
2019-04-11T06:04:03.429Z,76.96
2019-04-11T06:05:03.577Z,75.64
2019-04-11T06:06:04.752Z,73.25
2019-04-11T06:07:03.408Z,71.14
2019-04-11T06:08:05.412Z,67.83
2019-04-11T06:09:04.025Z,65.26
2019-04-11T06:10:08.508Z,62.30
2019-04-11T06:11:05.915Z,62.17
2019-04-11T06:12:03.378Z,62.01
2019-04-11T06:13:04.501Z,59.09
2019-04-11T06:14:05.659Z,59.20
2019-04-11T06:15:03.936Z,57.81
2019-04-11T06:16:04.496Z,57.98
2019-04-11T06:17:03.280Z,56.93
2019-04-11T06:18:03.273Z,56.31
2019-04-11T06:19:04.020Z,55.54
2019-04-11T06:20:04.053Z,54.17
2019-04-11T06:21:03.952Z,53.23
2019-04-11T06:22:04.471Z,52.92
2019-04-11T06:23:03.810Z,52.25
2019-04-11T06:24:03.573Z,50.13
2019-04-11T06:25:03.606Z,48.85
2019-04-11T06:26:03.180Z,48.26
2019-04-11T06:27:04.036Z,49.26
2019-04-11T06:28:04.116Z,47.40
2019-04-11T06:29:14.686Z,47.40
2019-04-11T06:30:05.415Z,46.86
2019-04-11T06:31:04.522Z,46.92
2019-04-11T06:32:03.543Z,46.35
2019-04-11T06:33:03.100Z,46.89
2019-04-11T06:34:03.084Z,46.76
2019-04-11T06:35:03.990Z,46.86
2019-04-11T06:36:04.075Z,46.66
2019-04-11T06:37:03.573Z,46.00
2019-04-11T06:38:03.036Z,45.88
2019-04-11T06:39:03.043Z,44.28
2019-04-11T06:40:04.088Z,42.63
2019-04-11T06:41:03.027Z,42.71
2019-04-11T06:42:04.140Z,41.69
2019-04-11T06:43:03.605Z,41.28
2019-04-11T06:44:02.978Z,41.37
2019-04-11T06:45:04.010Z,40.82
2019-04-11T06:46:03.041Z,40.52
2019-04-11T06:47:03.850Z,38.85
2019-04-11T06:48:03.188Z,39.26
2019-04-11T06:49:02.914Z,38.83
2019-04-11T06:50:02.928Z,39.00
2019-04-11T06:51:03.887Z,39.00
2019-04-11T06:52:02.900Z,38.20
2019-04-11T06:53:02.866Z,39.00
2019-04-11T06:54:02.853Z,37.76
2019-04-11T06:55:02.843Z,36.97
2019-04-11T06:56:03.602Z,37.95
2019-04-11T06:57:02.844Z,36.87
2019-04-11T06:58:02.807Z,38.34
2019-04-11T06:59:03.866Z,38.32
2019-04-11T07:00:03.026Z,38.59
2019-04-11T07:01:03.529Z,36.73
2019-04-11T07:02:08.847Z,36.71
2019-04-11T07:04:13.493Z,36.15
2019-04-11T07:05:12.559Z,35.11
2019-04-11T07:06:13.342Z,34.69
2019-04-11T07:07:12.964Z,34.13
2019-04-11T07:08:12.519Z,32.30
2019-04-11T07:09:12.554Z,32.50
2019-04-11T07:10:13.678Z,33.14
2019-04-11T07:11:13.491Z,33.88
2019-04-11T07:12:13.381Z,34.70
2019-04-11T07:13:12.478Z,34.59
2019-04-11T07:14:12.534Z,34.59
2019-04-11T07:15:12.442Z,34.88
2019-04-11T07:16:13.334Z,34.05
2019-04-11T07:17:13.691Z,34.01
2019-04-11T07:18:12.422Z,32.05
2019-04-11T07:19:13.450Z,31.22
2019-04-11T07:20:13.021Z,30.51
2019-04-11T07:21:12.369Z,30.50
2019-04-11T07:22:13.207Z,29.90
2019-04-11T07:23:13.518Z,30.79
2019-04-11T07:24:12.332Z,28.93
2019-04-11T07:25:12.467Z,29.12
2019-04-11T07:26:12.319Z,27.69
2019-04-11T07:27:12.302Z,28.08
2019-04-11T07:28:12.304Z,27.35
2019-04-11T07:29:13.020Z,26.43
2019-04-11T07:30:13.310Z,26.51
2019-04-11T07:31:12.814Z,25.99
2019-04-11T07:32:13.441Z,26.42
2019-04-11T07:33:12.760Z,26.57
2019-04-11T07:34:12.220Z,28.33
2019-04-11T07:35:12.955Z,29.58
2019-04-11T07:36:12.454Z,30.79
2019-04-11T07:37:12.648Z,30.15
2019-04-11T07:38:12.174Z,27.81
2019-04-11T07:39:12.861Z,28.91
2019-04-11T07:40:13.121Z,27.86
2019-04-11T07:41:12.780Z,26.23
2019-04-11T07:42:13.674Z,27.44
2019-04-11T07:43:13.906Z,26.81
2019-04-11T07:44:13.123Z,26.20
2019-04-11T07:45:14.088Z,25.68
2019-04-11T07:46:12.666Z,25.70
2019-04-11T07:47:17.209Z,25.82
2019-04-11T07:48:13.059Z,26.64
2019-04-11T07:49:12.170Z,26.72
2019-04-11T07:50:12.033Z,26.91
2019-04-11T07:51:13.169Z,26.07
2019-04-11T07:52:12.010Z,25.47
2019-04-11T07:53:12.892Z,25.85
2019-04-11T07:54:11.985Z,24.29
2019-04-11T07:55:13.094Z,25.31
2019-04-11T07:56:12.047Z,25.40
2019-04-11T07:57:12.924Z,27.79
2019-04-11T07:58:13.066Z,26.89
2019-04-11T07:59:12.900Z,27.06
2019-04-11T08:00:12.809Z,26.53
2019-04-11T08:01:12.644Z,25.49
2019-04-11T08:02:12.407Z,24.46
2019-04-11T08:03:12.329Z,25.55
2019-04-11T08:04:12.786Z,24.24
2019-04-11T08:05:11.877Z,23.43
2019-04-11T08:06:11.852Z,24.86
2019-04-11T08:07:11.838Z,23.95
2019-04-11T08:08:11.825Z,24.36
2019-04-11T08:09:11.814Z,24.60
2019-04-11T08:10:11.821Z,25.93
2019-04-11T08:11:11.792Z,25.43
2019-04-11T08:12:12.828Z,26.16
2019-04-11T08:13:12.357Z,26.79
2019-04-11T08:14:12.526Z,27.00
2019-04-11T08:15:11.800Z,26.48
2019-04-11T08:16:12.576Z,26.76
2019-04-11T08:17:11.729Z,26.31
2019-04-11T08:18:12.494Z,24.88
2019-04-11T08:19:11.701Z,24.63
2019-04-11T08:20:11.690Z,23.68
2019-04-11T08:21:12.132Z,22.20
2019-04-11T08:22:11.667Z,24.01
2019-04-11T08:23:11.735Z,22.78
2019-04-11T08:24:12.055Z,23.30
2019-04-11T08:25:11.667Z,23.74
2019-04-11T08:26:11.730Z,23.33
2019-04-11T08:27:11.615Z,23.30
2019-04-11T08:28:13.839Z,22.77
2019-04-11T08:29:14.051Z,22.06
2019-04-11T08:30:12.717Z,23.46
2019-04-11T08:31:11.589Z,24.41
2019-04-11T08:32:11.796Z,24.30
2019-04-11T08:33:11.547Z,25.21
2019-04-11T08:34:11.536Z,25.18
2019-04-11T08:35:12.255Z,23.45
2019-04-11T08:36:11.528Z,22.72
2019-04-11T08:37:11.594Z,22.38
2019-04-11T08:38:12.004Z,21.77
2019-04-11T08:39:11.482Z,21.00
2019-04-11T08:40:11.545Z,22.86
2019-04-11T08:41:11.495Z,23.97
2019-04-11T08:42:11.445Z,22.76
2019-04-11T08:43:11.435Z,23.50
2019-04-11T08:44:11.961Z,25.83
2019-04-11T08:45:12.340Z,24.01
2019-04-11T08:46:11.421Z,23.90
2019-04-11T08:47:11.953Z,25.33
2019-04-11T08:48:11.379Z,25.13
2019-04-11T08:49:11.367Z,25.12
2019-04-11T08:50:12.306Z,26.03
2019-04-11T08:51:11.466Z,24.41
2019-04-11T08:52:11.808Z,24.19
2019-04-11T08:53:11.330Z,24.68
2019-04-11T08:54:11.308Z,24.79
2019-04-11T08:55:12.349Z,24.05
2019-04-11T08:56:12.446Z,22.84
2019-04-11T08:57:11.762Z,23.64
2019-04-11T08:58:12.062Z,22.25
2019-04-11T08:59:11.464Z,22.66
2019-04-11T09:00:11.243Z,23.15
2019-04-11T09:01:11.599Z,23.12
2019-04-11T09:02:11.241Z,21.61
2019-04-11T09:03:11.372Z,21.80
2019-04-11T09:04:13.430Z,21.89
2019-04-11T09:05:15.130Z,21.88
2019-04-11T09:06:12.531Z,21.96
2019-04-11T09:07:11.785Z,20.14
2019-04-11T09:08:11.156Z,21.33
2019-04-11T09:09:11.236Z,20.43
2019-04-11T09:10:11.600Z,21.63
2019-04-11T09:11:11.121Z,21.63
2019-04-11T09:12:12.086Z,20.13
2019-04-11T09:13:11.202Z,19.64
2019-04-11T09:14:11.599Z,19.92
2019-04-11T09:15:11.074Z,20.25
2019-04-11T09:16:11.067Z,20.36
2019-04-11T09:17:12.229Z,20.26
2019-04-11T09:18:13.712Z,21.68
2019-04-11T09:19:11.031Z,21.38
2019-04-11T09:20:11.538Z,21.58
2019-04-11T09:21:11.932Z,21.27
2019-04-11T09:22:11.103Z,21.78
2019-04-11T09:23:11.327Z,21.57
2019-04-11T09:24:10.977Z,20.47
2019-04-11T09:25:11.111Z,20.76
2019-04-11T09:26:11.801Z,21.83
2019-04-11T09:27:12.074Z,22.16
2019-04-11T09:28:11.354Z,22.83
2019-04-11T09:29:10.919Z,21.82
2019-04-11T09:30:13.336Z,21.81
2019-04-11T09:31:13.648Z,22.33
2019-04-11T09:32:11.855Z,22.64
2019-04-11T09:33:10.996Z,23.03
2019-04-11T09:34:11.286Z,22.41
2019-04-11T09:35:10.851Z,21.42
2019-04-11T09:36:11.378Z,21.61
2019-04-11T09:37:14.000Z,21.39
2019-04-11T09:38:10.834Z,20.62
2019-04-11T09:39:10.849Z,21.08
2019-04-11T09:40:11.865Z,20.59
2019-04-11T09:41:10.782Z,21.06
2019-04-11T09:42:11.679Z,22.36
2019-04-11T09:43:11.475Z,21.85
2019-04-11T09:44:10.753Z,22.76
2019-04-11T09:45:11.055Z,21.83
2019-04-11T09:46:10.726Z,21.33
2019-04-11T09:47:11.208Z,21.30
2019-04-11T09:48:14.796Z,21.08
2019-04-11T09:49:12.370Z,20.68
2019-04-11T09:50:11.835Z,20.60
2019-04-11T09:51:11.436Z,20.61
2019-04-11T09:52:10.660Z,20.79
2019-04-11T09:53:10.665Z,20.31
2019-04-11T09:54:11.950Z,21.73
2019-04-11T09:55:10.759Z,21.51
2019-04-11T09:56:10.974Z,21.20
2019-04-11T09:57:10.603Z,21.30
2019-04-11T09:58:11.156Z,21.16
2019-04-11T09:59:10.579Z,19.68
2019-04-11T10:00:10.567Z,20.38
2019-04-11T10:01:10.564Z,19.67
2019-04-11T10:02:10.550Z,19.48
2019-04-11T10:03:10.863Z,19.89
2019-04-11T10:04:10.842Z,20.79
2019-04-11T10:05:10.539Z,20.20
2019-04-11T10:06:12.246Z,19.48
2019-04-11T10:07:11.142Z,20.19
2019-04-11T10:08:10.705Z,20.23
2019-04-11T10:09:11.489Z,21.33
2019-04-11T10:10:10.808Z,21.22
2019-04-11T10:11:10.444Z,20.61
2019-04-11T10:12:11.648Z,21.61
2019-04-11T10:13:10.845Z,20.09
2019-04-11T10:14:10.433Z,19.18
2019-04-11T10:15:11.433Z,20.62
2019-04-11T10:16:11.536Z,22.14
2019-04-11T10:17:10.699Z,21.08
2019-04-11T10:18:20.147Z,20.18
2019-04-11T10:19:11.711Z,19.76
2019-04-11T10:20:10.694Z,19.46
2019-04-11T10:21:10.335Z,19.46
2019-04-11T10:22:11.048Z,19.65
2019-04-11T10:23:10.448Z,19.94
2019-04-11T10:24:11.380Z,19.67
2019-04-11T10:25:10.681Z,19.15
2019-04-11T10:26:10.280Z,18.76
2019-04-11T10:27:10.266Z,19.75
2019-04-11T10:28:11.246Z,18.28
2019-04-11T10:29:11.385Z,19.77
2019-04-11T10:30:10.251Z,19.07
2019-04-11T10:31:10.611Z,18.27
2019-04-11T10:32:10.756Z,19.33
2019-04-11T10:33:10.829Z,19.94
2019-04-11T10:34:11.208Z,19.66
2019-04-11T10:35:10.260Z,22.85
2019-04-11T10:36:10.514Z,23.56
2019-04-11T10:37:10.160Z,21.01
2019-04-11T10:38:10.150Z,20.18
2019-04-11T10:39:11.118Z,20.87
2019-04-11T10:40:10.222Z,21.25
2019-04-11T10:41:10.111Z,20.37
2019-04-11T10:42:10.578Z,20.40
2019-04-11T10:43:10.088Z,21.72
2019-04-11T10:44:10.075Z,21.55
2019-04-11T10:45:10.163Z,23.06
2019-04-11T10:46:11.034Z,24.80
2019-04-11T10:47:10.075Z,24.74
2019-04-11T10:48:10.030Z,25.16
2019-04-11T10:49:10.033Z,26.51
2019-04-11T10:50:11.063Z,26.53
2019-04-11T10:51:10.832Z,26.66
2019-04-11T10:52:09.993Z,28.38
2019-04-11T10:53:11.001Z,26.28
2019-04-11T10:54:09.965Z,27.52
2019-04-11T10:55:09.951Z,27.30
2019-04-11T10:56:10.671Z,28.72
2019-04-11T10:57:10.008Z,27.58
2019-04-11T10:58:10.857Z,26.91
2019-04-11T10:59:10.177Z,24.73
2019-04-11T11:00:09.897Z,21.56
2019-04-11T11:01:09.899Z,21.73
2019-04-11T11:02:10.728Z,23.22
2019-04-11T11:03:09.865Z,21.86
2019-04-11T11:04:09.847Z,23.61
2019-04-11T11:05:09.836Z,24.56
2019-04-11T11:06:09.844Z,25.04
2019-04-11T11:07:11.176Z,24.61
2019-04-11T11:08:09.974Z,23.37
2019-04-11T11:09:10.143Z,23.68
2019-04-11T11:10:09.781Z,22.42
2019-04-11T11:11:12.612Z,21.89
2019-04-11T11:12:10.581Z,20.28
2019-04-11T11:13:09.754Z,22.31
2019-04-11T11:14:10.217Z,21.31
2019-04-11T11:15:09.838Z,20.51
2019-04-11T11:16:09.751Z,21.81
2019-04-11T11:17:10.783Z,22.85
2019-04-11T11:19:01.949Z,23.57
2019-04-11T11:19:39.018Z,23.90
2019-04-11T11:20:21.525Z,24.36
2019-04-11T11:21:11.329Z,25.41
2019-04-11T11:22:10.493Z,26.84
2019-04-11T11:23:11.512Z,25.89
2019-04-11T11:24:10.790Z,24.63
2019-04-11T11:25:12.713Z,24.69
2019-04-11T11:26:10.603Z,23.65
2019-04-11T11:27:09.616Z,21.77
2019-04-11T11:28:09.627Z,22.67
2019-04-11T11:29:13.623Z,23.80
2019-04-11T11:30:10.856Z,23.77
2019-04-11T11:31:09.540Z,22.63
2019-04-11T11:32:09.545Z,21.39
2019-04-11T11:33:09.995Z,21.28
2019-04-11T11:34:14.641Z,21.42
2019-04-11T11:35:10.777Z,22.76
2019-04-11T11:36:11.018Z,23.02
2019-04-11T11:37:09.493Z,22.46
2019-04-11T11:38:09.473Z,20.24
2019-04-11T11:39:09.448Z,20.12
2019-04-11T11:40:14.564Z,19.89
2019-04-11T11:41:10.426Z,19.59
2019-04-11T11:42:10.316Z,19.60
2019-04-11T11:43:10.584Z,19.22
2019-04-11T11:44:09.754Z,19.91
2019-04-11T11:45:09.381Z,20.51
2019-04-11T11:46:10.046Z,19.89
2019-04-11T11:47:09.919Z,19.97
2019-04-11T11:48:14.768Z,18.80
2019-04-11T11:49:10.332Z,18.99
2019-04-11T11:50:15.553Z,17.90
2019-04-11T11:51:10.904Z,18.96
2019-04-11T11:52:09.326Z,20.72
2019-04-11T11:53:11.936Z,21.44
2019-04-11T11:54:09.279Z,21.66
2019-04-11T11:55:10.261Z,21.45
2019-04-11T11:56:09.549Z,20.81
2019-04-11T11:57:09.242Z,20.79
2019-04-11T11:58:09.252Z,21.58
2019-04-11T11:59:09.220Z,20.36
2019-04-11T12:00:09.209Z,20.34
2019-04-11T12:01:09.586Z,20.12
2019-04-11T12:02:10.573Z,19.41
2019-04-11T12:03:09.192Z,19.42
2019-04-11T12:04:09.164Z,20.15
2019-04-11T12:05:13.297Z,21.50
2019-04-11T12:06:10.142Z,21.20
2019-04-11T12:07:09.409Z,20.81
2019-04-11T12:08:13.320Z,21.08
2019-04-11T12:09:10.109Z,20.26
2019-04-11T12:10:09.155Z,20.28
2019-04-11T12:11:10.124Z,20.47
2019-04-11T12:12:09.096Z,21.04
2019-04-11T12:13:11.612Z,20.67
2019-04-11T12:14:09.728Z,22.64
2019-04-11T12:15:09.789Z,21.73
2019-04-11T12:16:10.012Z,22.23
2019-04-11T12:17:10.082Z,22.81
2019-04-11T12:18:09.884Z,20.79
2019-04-11T12:19:08.996Z,22.58
2019-04-11T12:20:12.675Z,21.09
2019-04-11T12:21:09.968Z,20.39
2019-04-11T12:22:08.960Z,21.67
2019-04-11T12:23:08.968Z,20.46
2019-04-11T12:24:09.700Z,19.95
2019-04-11T12:25:09.227Z,20.32
2019-04-11T12:26:11.022Z,21.25
2019-04-11T12:27:10.233Z,20.95
2019-04-11T12:28:13.260Z,19.94
2019-04-11T12:29:10.225Z,20.05
2019-04-11T12:30:10.628Z,21.12
2019-04-11T12:31:09.290Z,20.34
2019-04-11T12:32:08.844Z,21.65
2019-04-11T12:33:08.974Z,21.84
2019-04-11T12:34:08.821Z,22.02
2019-04-11T12:35:08.810Z,21.70
2019-04-11T12:36:09.821Z,21.09
2019-04-11T12:37:08.921Z,20.76
2019-04-11T12:38:08.797Z,20.15
2019-04-11T12:39:08.764Z,21.23
2019-04-11T12:40:09.752Z,21.03
2019-04-11T12:41:08.756Z,20.65
2019-04-11T12:42:08.731Z,22.17
2019-04-11T12:43:08.742Z,21.62
2019-04-11T12:44:08.705Z,22.95
2019-04-11T12:45:08.698Z,24.20
2019-04-11T12:46:08.683Z,25.46
2019-04-11T12:47:08.687Z,26.62
2019-04-11T12:48:11.964Z,27.59
2019-04-11T12:49:08.678Z,28.31
2019-04-11T12:50:08.640Z,28.62
2019-04-11T12:51:08.629Z,28.80
2019-04-11T12:52:08.614Z,26.51
2019-04-11T12:53:08.675Z,25.95
2019-04-11T12:54:08.615Z,26.51
2019-04-11T12:55:08.583Z,24.15